Open Full Screen Window  High Contrast Mode
Wind Gusting 00 knots
08
May 29, 2017 9:12 AM EDT
Weather Information
Wind Direction
  250 °
Wind Speed
  08 kt (9 mph)
Wind Gust
  00 kt (0 mph)
Altimeter
29.88 in
Visibility
10 SM
Temperature
18° C
64° F
Dewpoint
13° C
55° F
Humidity
73%
1hr Rain Fall
00.00 in.
24hr Rain Fall
00.49 in.
Sky Condition
Scattered @ 5,500 ft
VFR

METAR KPOV 291312Z AUTO 25008KT 10SM SCT055 18/13 A2988 RMK AO2 T01760131

*Background is not an actual portrayal of the airport.